sensor_id;sensor_type;location;lat;lon;timestamp;pressure;altitude;pressure_sealevel;temperature
49593;BMP280;35499;51.482;4.264;2023-08-12T00:00:12;101671.34;;;21.52
49593;BMP280;35499;51.482;4.264;2023-08-12T00:02:40;101660.78;;;21.53
49593;BMP280;35499;51.482;4.264;2023-08-12T00:05:06;101668.63;;;21.53
49593;BMP280;35499;51.482;4.264;2023-08-12T00:07:33;101657.19;;;21.55
49593;BMP280;35499;51.482;4.264;2023-08-12T00:09:59;101658.06;;;21.56
49593;BMP280;35499;51.482;4.264;2023-08-12T00:12:26;101655.34;;;21.57
49593;BMP280;35499;51.482;4.264;2023-08-12T00:14:51;101649.22;;;21.58
49593;BMP280;35499;51.482;4.264;2023-08-12T00:17:16;101651.75;;;21.60
49593;BMP280;35499;51.482;4.264;2023-08-12T00:19:42;101646.53;;;21.60
49593;BMP280;35499;51.482;4.264;2023-08-12T00:22:07;101642.22;;;21.59
49593;BMP280;35499;51.482;4.264;2023-08-12T00:24:32;101649.16;;;21.60
49593;BMP280;35499;51.482;4.264;2023-08-12T00:26:57;101646.53;;;21.60
49593;BMP280;35499;51.482;4.264;2023-08-12T00:29:23;101640.44;;;21.59
49593;BMP280;35499;51.482;4.264;2023-08-12T00:31:48;101645.69;;;21.59
49593;BMP280;35499;51.482;4.264;2023-08-12T00:34:13;101643.13;;;21.58
49593;BMP280;35499;51.482;4.264;2023-08-12T00:36:39;101639.75;;;21.56
49593;BMP280;35499;51.482;4.264;2023-08-12T00:39:04;101639.81;;;21.54
49593;BMP280;35499;51.482;4.264;2023-08-12T00:41:30;101639.19;;;21.50
49593;BMP280;35499;51.482;4.264;2023-08-12T00:43:55;101633.25;;;21.46
49593;BMP280;35499;51.482;4.264;2023-08-12T00:46:21;101623.06;;;21.40
49593;BMP280;35499;51.482;4.264;2023-08-12T00:48:47;101626.75;;;21.36
49593;BMP280;35499;51.482;4.264;2023-08-12T00:51:13;101621.63;;;21.33
49593;BMP280;35499;51.482;4.264;2023-08-12T00:53:38;101616.47;;;21.32
49593;BMP280;35499;51.482;4.264;2023-08-12T00:56:04;101620.06;;;21.30
49593;BMP280;35499;51.482;4.264;2023-08-12T00:58:29;101621.91;;;21.28
49593;BMP280;35499;51.482;4.264;2023-08-12T01:00:55;101609.88;;;21.24
49593;BMP280;35499;51.482;4.264;2023-08-12T01:03:21;101614.47;;;21.19
49593;BMP280;35499;51.482;4.264;2023-08-12T01:05:46;101614.69;;;21.15
49593;BMP280;35499;51.482;4.264;2023-08-12T01:08:12;101620.06;;;21.12
49593;BMP280;35499;51.482;4.264;2023-08-12T01:10:39;101623.66;;;21.08
49593;BMP280;35499;51.482;4.264;2023-08-12T01:13:11;101617.78;;;21.03
49593;BMP280;35499;51.482;4.264;2023-08-12T01:15:39;101617.88;;;21.01
49593;BMP280;35499;51.482;4.264;2023-08-12T01:18:06;101608.41;;;20.99
49593;BMP280;35499;51.482;4.264;2023-08-12T01:20:32;101602.31;;;20.98
49593;BMP280;35499;51.482;4.264;2023-08-12T01:25:32;101604.03;;;20.99
49593;BMP280;35499;51.482;4.264;2023-08-12T01:27:57;101599.66;;;21.00
49593;BMP280;35499;51.482;4.264;2023-08-12T01:30:23;101589.19;;;21.00
49593;BMP280;35499;51.482;4.264;2023-08-12T01:32:54;101591.75;;;21.01
49593;BMP280;35499;51.482;4.264;2023-08-12T01:35:24;101589.91;;;21.03
49593;BMP280;35499;51.482;4.264;2023-08-12T01:37:52;101586.38;;;21.04
49593;BMP280;35499;51.482;4.264;2023-08-12T01:40:19;101591.59;;;21.04
49593;BMP280;35499;51.482;4.264;2023-08-12T01:42:44;101574.19;;;21.05
49593;BMP280;35499;51.482;4.264;2023-08-12T01:45:10;101574.13;;;21.06
49593;BMP280;35499;51.482;4.264;2023-08-12T01:47:35;101576.72;;;21.06
49593;BMP280;35499;51.482;4.264;2023-08-12T01:50:01;101587.94;;;21.08
49593;BMP280;35499;51.482;4.264;2023-08-12T01:52:26;101574.88;;;21.08
49593;BMP280;35499;51.482;4.264;2023-08-12T01:54:51;101580.94;;;21.09
49593;BMP280;35499;51.482;4.264;2023-08-12T01:57:17;101575.69;;;21.10
49593;BMP280;35499;51.482;4.264;2023-08-12T01:59:42;101578.25;;;21.12
49593;BMP280;35499;51.482;4.264;2023-08-12T02:02:11;101573.84;;;21.12
49593;BMP280;35499;51.482;4.264;2023-08-12T02:04:37;101575.56;;;21.13
49593;BMP280;35499;51.482;4.264;2023-08-12T02:07:03;101573.72;;;21.15
49593;BMP280;35499;51.482;4.264;2023-08-12T02:09:29;101572.03;;;21.14
49593;BMP280;35499;51.482;4.264;2023-08-12T02:11:54;101568.50;;;21.15
49593;BMP280;35499;51.482;4.264;2023-08-12T02:14:19;101561.72;;;21.11
49593;BMP280;35499;51.482;4.264;2023-08-12T02:16:44;101565.28;;;21.09
49593;BMP280;35499;51.482;4.264;2023-08-12T02:19:10;101559.28;;;21.07
49593;BMP280;35499;51.482;4.264;2023-08-12T02:21:35;101558.50;;;21.05
49593;BMP280;35499;51.482;4.264;2023-08-12T02:24:00;101550.72;;;21.03
49593;BMP280;35499;51.482;4.264;2023-08-12T02:26:25;101557.81;;;21.01
49593;BMP280;35499;51.482;4.264;2023-08-12T02:28:51;101549.16;;;20.99
49593;BMP280;35499;51.482;4.264;2023-08-12T02:31:16;101544.94;;;20.97
49593;BMP280;35499;51.482;4.264;2023-08-12T02:33:42;101550.28;;;20.94
49593;BMP280;35499;51.482;4.264;2023-08-12T02:36:08;101544.28;;;20.92
49593;BMP280;35499;51.482;4.264;2023-08-12T02:38:33;101540.91;;;20.90
49593;BMP280;35499;51.482;4.264;2023-08-12T02:40:59;101534.88;;;20.88
49593;BMP280;35499;51.482;4.264;2023-08-12T02:43:24;101537.50;;;20.88
49593;BMP280;35499;51.482;4.264;2023-08-12T02:45:51;101525.34;;;20.87
49593;BMP280;35499;51.482;4.264;2023-08-12T02:48:16;101534.84;;;20.90
49593;BMP280;35499;51.482;4.264;2023-08-12T02:50:41;101535.69;;;20.90
49593;BMP280;35499;51.482;4.264;2023-08-12T02:53:07;101526.09;;;20.91
49593;BMP280;35499;51.482;4.264;2023-08-12T02:55:33;101524.31;;;20.91
49593;BMP280;35499;51.482;4.264;2023-08-12T02:57:59;101530.47;;;20.90
49593;BMP280;35499;51.482;4.264;2023-08-12T03:00:25;101534.84;;;20.90
49593;BMP280;35499;51.482;4.264;2023-08-12T03:02:50;101533.28;;;20.86
49593;BMP280;35499;51.482;4.264;2023-08-12T03:05:15;101540.38;;;20.82
49593;BMP280;35499;51.482;4.264;2023-08-12T03:07:41;101539.66;;;20.79
49593;BMP280;35499;51.482;4.264;2023-08-12T03:10:06;101539.03;;;20.74
49593;BMP280;35499;51.482;4.264;2023-08-12T03:12:32;101535.78;;;20.69
49593;BMP280;35499;51.482;4.264;2023-08-12T03:14:57;101535.97;;;20.65
49593;BMP280;35499;51.482;4.264;2023-08-12T03:17:22;101529.25;;;20.60
49593;BMP280;35499;51.482;4.264;2023-08-12T03:19:48;101503.41;;;20.54
49593;BMP280;35499;51.482;4.264;2023-08-12T03:22:14;101500.16;;;20.49
49593;BMP280;35499;51.482;4.264;2023-08-12T03:24:39;101505.56;;;20.44
49593;BMP280;35499;51.482;4.264;2023-08-12T03:27:05;101511.00;;;20.40
49593;BMP280;35499;51.482;4.264;2023-08-12T03:29:30;101505.13;;;20.35
49593;BMP280;35499;51.482;4.264;2023-08-12T03:31:55;101498.25;;;20.33
49593;BMP280;35499;51.482;4.264;2023-08-12T03:34:20;101478.34;;;20.30
49593;BMP280;35499;51.482;4.264;2023-08-12T03:36:45;101483.81;;;20.25
49593;BMP280;35499;51.482;4.264;2023-08-12T03:39:13;101484.63;;;20.26
49593;BMP280;35499;51.482;4.264;2023-08-12T03:41:39;101470.78;;;20.25
49593;BMP280;35499;51.482;4.264;2023-08-12T03:44:04;101465.63;;;20.23
49593;BMP280;35499;51.482;4.264;2023-08-12T03:46:30;101458.72;;;20.22
49593;BMP280;35499;51.482;4.264;2023-08-12T03:48:55;101454.41;;;20.21
49593;BMP280;35499;51.482;4.264;2023-08-12T03:51:20;101456.19;;;20.21
49593;BMP280;35499;51.482;4.264;2023-08-12T03:53:47;101450.97;;;20.21
49593;BMP280;35499;51.482;4.264;2023-08-12T03:56:12;101457.94;;;20.20
49593;BMP280;35499;51.482;4.264;2023-08-12T03:58:40;101452.00;;;20.17
49593;BMP280;35499;51.482;4.264;2023-08-12T04:01:05;101455.53;;;20.16
49593;BMP280;35499;51.482;4.264;2023-08-12T04:03:30;101459.03;;;20.15
49593;BMP280;35499;51.482;4.264;2023-08-12T04:05:56;101463.47;;;20.13
49593;BMP280;35499;51.482;4.264;2023-08-12T04:08:22;101467.00;;;20.12
49593;BMP280;35499;51.482;4.264;2023-08-12T04:10:48;101460.94;;;20.11
49593;BMP280;35499;51.482;4.264;2023-08-12T04:13:14;101456.63;;;20.10
49593;BMP280;35499;51.482;4.264;2023-08-12T04:15:40;101457.53;;;20.09
49593;BMP280;35499;51.482;4.264;2023-08-12T04:18:05;101461.91;;;20.09
49593;BMP280;35499;51.482;4.264;2023-08-12T04:20:30;101447.97;;;20.10
49593;BMP280;35499;51.482;4.264;2023-08-12T04:22:56;101445.41;;;20.08
49593;BMP280;35499;51.482;4.264;2023-08-12T04:25:22;101430.75;;;20.06
49593;BMP280;35499;51.482;4.264;2023-08-12T04:27:47;101438.63;;;20.05
49593;BMP280;35499;51.482;4.264;2023-08-12T04:30:15;101430.09;;;20.01
49593;BMP280;35499;51.482;4.264;2023-08-12T04:32:40;101438.03;;;19.98
49593;BMP280;35499;51.482;4.264;2023-08-12T04:35:06;101426.91;;;19.95
49593;BMP280;35499;51.482;4.264;2023-08-12T04:37:31;101426.91;;;19.95
49593;BMP280;35499;51.482;4.264;2023-08-12T04:39:58;101426.91;;;19.95
49593;BMP280;35499;51.482;4.264;2023-08-12T04:42:23;101428.72;;;19.93
49593;BMP280;35499;51.482;4.264;2023-08-12T04:44:48;101419.28;;;19.90
49593;BMP280;35499;51.482;4.264;2023-08-12T04:47:13;101428.00;;;19.89
49593;BMP280;35499;51.482;4.264;2023-08-12T04:49:39;101421.09;;;19.89
49593;BMP280;35499;51.482;4.264;2023-08-12T04:52:05;101422.06;;;19.86
49593;BMP280;35499;51.482;4.264;2023-08-12T04:54:30;101427.34;;;19.85
49593;BMP280;35499;51.482;4.264;2023-08-12T04:56:55;101423.88;;;19.84
49593;BMP280;35499;51.482;4.264;2023-08-12T04:59:21;101421.34;;;19.83
49593;BMP280;35499;51.482;4.264;2023-08-12T05:01:47;101422.28;;;19.82
49593;BMP280;35499;51.482;4.264;2023-08-12T05:04:12;101413.59;;;19.81
49593;BMP280;35499;51.482;4.264;2023-08-12T05:06:38;101409.25;;;19.82
49593;BMP280;35499;51.482;4.264;2023-08-12T05:09:03;101408.38;;;19.81
49593;BMP280;35499;51.482;4.264;2023-08-12T05:11:28;101405.84;;;19.80
49593;BMP280;35499;51.482;4.264;2023-08-12T05:13:54;101410.19;;;19.79
49593;BMP280;35499;51.482;4.264;2023-08-12T05:16:19;101407.53;;;19.81
49593;BMP280;35499;51.482;4.264;2023-08-12T05:18:44;101404.13;;;19.79
49593;BMP280;35499;51.482;4.264;2023-08-12T05:21:09;101396.50;;;19.74
49593;BMP280;35499;51.482;4.264;2023-08-12T05:23:35;101398.41;;;19.71
49593;BMP280;35499;51.482;4.264;2023-08-12T05:26:01;101395.81;;;19.71
49593;BMP280;35499;51.482;4.264;2023-08-12T05:28:26;101399.31;;;19.70
49593;BMP280;35499;51.482;4.264;2023-08-12T05:30:51;101395.81;;;19.71
49593;BMP280;35499;51.482;4.264;2023-08-12T05:33:20;101397.50;;;19.72
49593;BMP280;35499;51.482;4.264;2023-08-12T05:35:47;101398.28;;;19.74
49593;BMP280;35499;51.482;4.264;2023-08-12T05:38:13;101398.28;;;19.74
49593;BMP280;35499;51.482;4.264;2023-08-12T05:40:38;101393.97;;;19.73
49593;BMP280;35499;51.482;4.264;2023-08-12T05:43:03;101400.97;;;19.72
49593;BMP280;35499;51.482;4.264;2023-08-12T05:45:28;101401.78;;;19.73
49593;BMP280;35499;51.482;4.264;2023-08-12T05:47:54;101398.34;;;19.72
49593;BMP280;35499;51.482;4.264;2023-08-12T05:50:19;101406.09;;;19.74
49593;BMP280;35499;51.482;4.264;2023-08-12T05:52:44;101405.97;;;19.77
49593;BMP280;35499;51.482;4.264;2023-08-12T05:55:10;101407.72;;;19.76
49593;BMP280;35499;51.482;4.264;2023-08-12T05:57:35;101413.72;;;19.78
49593;BMP280;35499;51.482;4.264;2023-08-12T06:00:00;101418.06;;;19.78
49593;BMP280;35499;51.482;4.264;2023-08-12T06:02:25;101417.13;;;19.80
49593;BMP280;35499;51.482;4.264;2023-08-12T06:04:51;101416.97;;;19.83
49593;BMP280;35499;51.482;4.264;2023-08-12T06:07:17;101417.72;;;19.87
49593;BMP280;35499;51.482;4.264;2023-08-12T06:09:43;101420.19;;;19.89
49593;BMP280;35499;51.482;4.264;2023-08-12T06:12:08;101418.38;;;19.91
49593;BMP280;35499;51.482;4.264;2023-08-12T06:14:39;101419.06;;;19.95
49593;BMP280;35499;51.482;4.264;2023-08-12T06:17:04;101416.41;;;19.96
49593;BMP280;35499;51.482;4.264;2023-08-12T06:19:30;101420.63;;;19.99
49593;BMP280;35499;51.482;4.264;2023-08-12T06:21:55;101417.06;;;20.01
49593;BMP280;35499;51.482;4.264;2023-08-12T06:24:20;101418.75;;;20.02
49593;BMP280;35499;51.482;4.264;2023-08-12T06:26:45;101430.75;;;20.06
49593;BMP280;35499;51.482;4.264;2023-08-12T06:29:11;101432.31;;;20.10
49593;BMP280;35499;51.482;4.264;2023-08-12T06:31:36;101433.75;;;20.17
49593;BMP280;35499;51.482;4.264;2023-08-12T06:34:01;101422.22;;;20.22
49593;BMP280;35499;51.482;4.264;2023-08-12T06:36:27;101419.50;;;20.24
49593;BMP280;35499;51.482;4.264;2023-08-12T06:38:52;101430.81;;;20.24
49593;BMP280;35499;51.482;4.264;2023-08-12T06:41:18;101434.31;;;20.23
49593;BMP280;35499;51.482;4.264;2023-08-12T06:43:43;101444.19;;;20.17
49593;BMP280;35499;51.482;4.264;2023-08-12T06:46:08;101450.66;;;19.88
49593;BMP280;35499;51.482;4.264;2023-08-12T06:48:33;101458.09;;;19.57
49593;BMP280;35499;51.482;4.264;2023-08-12T06:50:59;101455.44;;;19.36
49593;BMP280;35499;51.482;4.264;2023-08-12T06:53:25;101453.44;;;19.22
49593;BMP280;35499;51.482;4.264;2023-08-12T06:55:51;101459.84;;;19.14
49593;BMP280;35499;51.482;4.264;2023-08-12T06:58:16;101461.31;;;18.98
49593;BMP280;35499;51.482;4.264;2023-08-12T07:00:41;101466.50;;;18.77
49593;BMP280;35499;51.482;4.264;2023-08-12T07:03:07;101466.41;;;18.56
49593;BMP280;35499;51.482;4.264;2023-08-12T07:05:32;101468.72;;;18.41
49593;BMP280;35499;51.482;4.264;2023-08-12T07:07:58;101474.28;;;18.31
49593;BMP280;35499;51.482;4.264;2023-08-12T07:10:23;101467.72;;;18.21
49593;BMP280;35499;51.482;4.264;2023-08-12T07:12:48;101465.44;;;18.12
49593;BMP280;35499;51.482;4.264;2023-08-12T07:15:14;101469.13;;;18.06
49593;BMP280;35499;51.482;4.264;2023-08-12T07:17:39;101478.72;;;18.04
49593;BMP280;35499;51.482;4.264;2023-08-12T07:20:05;101477.09;;;18.01
49593;BMP280;35499;51.482;4.264;2023-08-12T07:22:31;101485.75;;;18.02
49593;BMP280;35499;51.482;4.264;2023-08-12T07:24:56;101494.44;;;18.01
49593;BMP280;35499;51.482;4.264;2023-08-12T07:27:25;101490.13;;;18.00
49593;BMP280;35499;51.482;4.264;2023-08-12T07:29:50;101492.03;;;17.95
49593;BMP280;35499;51.482;4.264;2023-08-12T07:32:15;101504.28;;;17.92
49593;BMP280;35499;51.482;4.264;2023-08-12T07:34:40;101511.81;;;17.99
49593;BMP280;35499;51.482;4.264;2023-08-12T07:37:06;101497.69;;;18.07
49593;BMP280;35499;51.482;4.264;2023-08-12T07:39:31;101503.38;;;18.18
49593;BMP280;35499;51.482;4.264;2023-08-12T07:41:56;101499.63;;;18.25
49593;BMP280;35499;51.482;4.264;2023-08-12T07:44:21;101492.47;;;18.31
49593;BMP280;35499;51.482;4.264;2023-08-12T07:46:47;101504.53;;;18.33
49593;BMP280;35499;51.482;4.264;2023-08-12T07:49:12;101503.41;;;18.40
49593;BMP280;35499;51.482;4.264;2023-08-12T07:51:37;101499.63;;;18.48
49593;BMP280;35499;51.482;4.264;2023-08-12T07:54:03;101503.56;;;18.60
49593;BMP280;35499;51.482;4.264;2023-08-12T07:56:28;101514.25;;;18.76
49593;BMP280;35499;51.482;4.264;2023-08-12T07:58:53;101511.81;;;18.94
49593;BMP280;35499;51.482;4.264;2023-08-12T08:01:18;101515.81;;;19.25
49593;BMP280;35499;51.482;4.264;2023-08-12T08:03:44;101518.28;;;19.28
49593;BMP280;35499;51.482;4.264;2023-08-12T08:06:09;101515.38;;;19.14
49593;BMP280;35499;51.482;4.264;2023-08-12T08:08:34;101510.78;;;18.98
49593;BMP280;35499;51.482;4.264;2023-08-12T08:11:00;101500.84;;;18.86
49593;BMP280;35499;51.482;4.264;2023-08-12T08:13:25;101505.56;;;18.77
49593;BMP280;35499;51.482;4.264;2023-08-12T08:15:50;101491.16;;;18.67
49593;BMP280;35499;51.482;4.264;2023-08-12T08:18:15;101497.16;;;18.69
49593;BMP280;35499;51.482;4.264;2023-08-12T08:20:44;101498.59;;;18.78
49593;BMP280;35499;51.482;4.264;2023-08-12T08:23:10;101497.34;;;18.87
49593;BMP280;35499;51.482;4.264;2023-08-12T08:25:35;101495.03;;;19.02
49593;BMP280;35499;51.482;4.264;2023-08-12T08:28:00;101506.47;;;19.19
49593;BMP280;35499;51.482;4.264;2023-08-12T08:30:26;101496.94;;;19.41
49593;BMP280;35499;51.482;4.264;2023-08-12T08:32:51;101498.41;;;19.69
49593;BMP280;35499;51.482;4.264;2023-08-12T08:35:17;101498.00;;;19.98
49593;BMP280;35499;51.482;4.264;2023-08-12T08:37:42;101497.88;;;20.22
49593;BMP280;35499;51.482;4.264;2023-08-12T08:40:08;101496.19;;;20.41
49593;BMP280;35499;51.482;4.264;2023-08-12T08:42:34;101500.94;;;20.51
49593;BMP280;35499;51.482;4.264;2023-08-12T08:45:01;101493.63;;;20.59
49593;BMP280;35499;51.482;4.264;2023-08-12T08:47:27;101507.06;;;20.69
49593;BMP280;35499;51.482;4.264;2023-08-12T08:49:56;101509.97;;;20.81
49593;BMP280;35499;51.482;4.264;2023-08-12T08:52:23;101509.03;;;21.02
49593;BMP280;35499;51.482;4.264;2023-08-12T08:54:48;101515.97;;;21.39
49593;BMP280;35499;51.482;4.264;2023-08-12T08:57:14;101519.44;;;21.74
49593;BMP280;35499;51.482;4.264;2023-08-12T08:59:39;101511.88;;;22.03
49593;BMP280;35499;51.482;4.264;2023-08-12T09:04:35;101521.50;;;22.52
49593;BMP280;35499;51.482;4.264;2023-08-12T09:07:00;101515.28;;;22.71
49593;BMP280;35499;51.482;4.264;2023-08-12T09:09:27;101514.31;;;22.88
49593;BMP280;35499;51.482;4.264;2023-08-12T09:11:52;101518.22;;;22.96
49593;BMP280;35499;51.482;4.264;2023-08-12T09:14:19;101516.69;;;22.93
49593;BMP280;35499;51.482;4.264;2023-08-12T09:16:45;101521.56;;;22.83
49593;BMP280;35499;51.482;4.264;2023-08-12T09:19:10;101530.34;;;22.82
49593;BMP280;35499;51.482;4.264;2023-08-12T09:21:35;101526.81;;;22.83
49593;BMP280;35499;51.482;4.264;2023-08-12T09:24:04;101538.22;;;22.82
49593;BMP280;35499;51.482;4.264;2023-08-12T09:26:30;101531.38;;;22.80
49593;BMP280;35499;51.482;4.264;2023-08-12T09:28:55;101536.56;;;22.65
49593;BMP280;35499;51.482;4.264;2023-08-12T09:31:26;101525.31;;;22.46
49593;BMP280;35499;51.482;4.264;2023-08-12T09:33:52;101526.94;;;22.65
49593;BMP280;35499;51.482;4.264;2023-08-12T09:36:18;101535.09;;;23.23
49593;BMP280;35499;51.482;4.264;2023-08-12T09:38:46;101523.19;;;23.93
49593;BMP280;35499;51.482;4.264;2023-08-12T09:41:12;101526.53;;;24.67
49593;BMP280;35499;51.482;4.264;2023-08-12T09:43:44;101525.63;;;25.23
49593;BMP280;35499;51.482;4.264;2023-08-12T09:46:13;101522.38;;;25.59
49593;BMP280;35499;51.482;4.264;2023-08-12T09:48:41;101526.09;;;25.68
49593;BMP280;35499;51.482;4.264;2023-08-12T09:51:08;101527.41;;;25.75
49593;BMP280;35499;51.482;4.264;2023-08-12T09:53:33;101517.50;;;25.92
49593;BMP280;35499;51.482;4.264;2023-08-12T09:56:06;101520.50;;;26.12
49593;BMP280;35499;51.482;4.264;2023-08-12T09:58:33;101519.56;;;26.51
49593;BMP280;35499;51.482;4.264;2023-08-12T10:00:59;101522.84;;;26.91
49593;BMP280;35499;51.482;4.264;2023-08-12T10:03:24;101513.69;;;27.09
49593;BMP280;35499;51.482;4.264;2023-08-12T10:05:51;101507.19;;;27.72
49593;BMP280;35499;51.482;4.264;2023-08-12T10:08:17;101509.91;;;28.28
49593;BMP280;35499;51.482;4.264;2023-08-12T10:10:43;101514.56;;;28.69
49593;BMP280;35499;51.482;4.264;2023-08-12T10:13:10;101509.81;;;29.06
49593;BMP280;35499;51.482;4.264;2023-08-12T10:15:36;101499.16;;;29.60
49593;BMP280;35499;51.482;4.264;2023-08-12T10:18:02;101497.41;;;30.01
49593;BMP280;35499;51.482;4.264;2023-08-12T10:20:29;101496.00;;;30.18
49593;BMP280;35499;51.482;4.264;2023-08-12T10:22:55;101497.34;;;30.43
49593;BMP280;35499;51.482;4.264;2023-08-12T10:25:20;101494.00;;;30.30
49593;BMP280;35499;51.482;4.264;2023-08-12T10:27:49;101497.16;;;30.24
49593;BMP280;35499;51.482;4.264;2023-08-12T10:30:15;101501.94;;;30.41
49593;BMP280;35499;51.482;4.264;2023-08-12T10:32:40;101498.88;;;30.65
49593;BMP280;35499;51.482;4.264;2023-08-12T10:35:06;101490.00;;;30.95
49593;BMP280;35499;51.482;4.264;2023-08-12T10:37:33;101486.19;;;31.18
49593;BMP280;35499;51.482;4.264;2023-08-12T10:40:02;101492.34;;;31.18
49593;BMP280;35499;51.482;4.264;2023-08-12T10:42:48;101505.63;;;31.18
49593;BMP280;35499;51.482;4.264;2023-08-12T10:45:16;101500.28;;;31.47
49593;BMP280;35499;51.482;4.264;2023-08-12T10:47:43;101498.56;;;31.94
49593;BMP280;35499;51.482;4.264;2023-08-12T10:50:20;101504.59;;;32.15
49593;BMP280;35499;51.482;4.264;2023-08-12T10:52:46;101487.38;;;32.37
49593;BMP280;35499;51.482;4.264;2023-08-12T10:57:41;101480.91;;;32.30
49593;BMP280;35499;51.482;4.264;2023-08-12T11:00:10;101484.47;;;32.03
49593;BMP280;35499;51.482;4.264;2023-08-12T11:02:36;101488.31;;;32.54
49593;BMP280;35499;51.482;4.264;2023-08-12T11:05:10;101483.72;;;32.56
49593;BMP280;35499;51.482;4.264;2023-08-12T11:07:41;101475.13;;;32.72
49593;BMP280;35499;51.482;4.264;2023-08-12T11:10:17;101477.06;;;32.79
49593;BMP280;35499;51.482;4.264;2023-08-12T11:12:55;101470.91;;;32.88
49593;BMP280;35499;51.482;4.264;2023-08-12T11:15:37;101472.28;;;33.18
49593;BMP280;35499;51.482;4.264;2023-08-12T11:18:04;101473.22;;;33.35
49593;BMP280;35499;51.482;4.264;2023-08-12T11:20:30;101464.88;;;33.47
49593;BMP280;35499;51.482;4.264;2023-08-12T11:22:55;101477.66;;;33.08
49593;BMP280;35499;51.482;4.264;2023-08-12T11:25:23;101469.38;;;33.47
49593;BMP280;35499;51.482;4.264;2023-08-12T11:27:48;101474.09;;;33.26
49593;BMP280;35499;51.482;4.264;2023-08-12T11:30:16;101469.25;;;33.65
49593;BMP280;35499;51.482;4.264;2023-08-12T11:32:47;101469.81;;;33.86
49593;BMP280;35499;51.482;4.264;2023-08-12T11:35:14;101469.81;;;34.03
49593;BMP280;35499;51.482;4.264;2023-08-12T11:37:40;101471.94;;;33.99
49593;BMP280;35499;51.482;4.264;2023-08-12T11:40:08;101469.88;;;33.94
49593;BMP280;35499;51.482;4.264;2023-08-12T11:42:35;101456.78;;;33.83
49593;BMP280;35499;51.482;4.264;2023-08-12T11:45:00;101463.03;;;33.91
49593;BMP280;35499;51.482;4.264;2023-08-12T11:47:26;101459.66;;;33.72
49593;BMP280;35499;51.482;4.264;2023-08-12T11:49:52;101464.13;;;34.23
49593;BMP280;35499;51.482;4.264;2023-08-12T11:52:18;101465.78;;;34.58
49593;BMP280;35499;51.482;4.264;2023-08-12T11:54:44;101464.00;;;34.41
49593;BMP280;35499;51.482;4.264;2023-08-12T11:57:09;101466.50;;;34.68
49593;BMP280;35499;51.482;4.264;2023-08-12T11:59:35;101460.88;;;34.71
49593;BMP280;35499;51.482;4.264;2023-08-12T12:02:02;101468.94;;;34.78
49593;BMP280;35499;51.482;4.264;2023-08-12T12:04:27;101458.25;;;34.78
49593;BMP280;35499;51.482;4.264;2023-08-12T12:06:53;101463.84;;;34.68
49593;BMP280;35499;51.482;4.264;2023-08-12T12:09:19;101469.34;;;34.66
49593;BMP280;35499;51.482;4.264;2023-08-12T12:11:45;101459.69;;;34.73
49593;BMP280;35499;51.482;4.264;2023-08-12T12:14:11;101470.50;;;34.64
49593;BMP280;35499;51.482;4.264;2023-08-12T12:16:41;101462.97;;;34.59
49593;BMP280;35499;51.482;4.264;2023-08-12T12:19:26;101460.53;;;34.49
49593;BMP280;35499;51.482;4.264;2023-08-12T12:21:53;101461.84;;;34.70
49593;BMP280;35499;51.482;4.264;2023-08-12T12:24:19;101464.44;;;34.79
49593;BMP280;35499;51.482;4.264;2023-08-12T12:26:45;101457.69;;;34.92
49593;BMP280;35499;51.482;4.264;2023-08-12T12:29:12;101460.06;;;35.03
49593;BMP280;35499;51.482;4.264;2023-08-12T12:31:38;101454.97;;;35.17
49593;BMP280;35499;51.482;4.264;2023-08-12T12:34:04;101460.63;;;35.14
49593;BMP280;35499;51.482;4.264;2023-08-12T12:36:31;101460.75;;;35.05
49593;BMP280;35499;51.482;4.264;2023-08-12T12:38:56;101461.63;;;34.80
49593;BMP280;35499;51.482;4.264;2023-08-12T12:41:22;101469.50;;;34.65
49593;BMP280;35499;51.482;4.264;2023-08-12T12:43:48;101461.28;;;34.58
49593;BMP280;35499;51.482;4.264;2023-08-12T12:46:13;101460.41;;;34.50
49593;BMP280;35499;51.482;4.264;2023-08-12T12:48:38;101465.66;;;34.42
49593;BMP280;35499;51.482;4.264;2023-08-12T12:51:04;101459.81;;;34.39
49593;BMP280;35499;51.482;4.264;2023-08-12T12:53:29;101462.56;;;34.30
49593;BMP280;35499;51.482;4.264;2023-08-12T12:55:54;101463.34;;;33.88
49593;BMP280;35499;51.482;4.264;2023-08-12T12:58:21;101465.22;;;34.13
49593;BMP280;35499;51.482;4.264;2023-08-12T13:00:48;101468.59;;;33.98
49593;BMP280;35499;51.482;4.264;2023-08-12T13:03:14;101467.44;;;33.83
49593;BMP280;35499;51.482;4.264;2023-08-12T13:05:39;101466.88;;;33.63
49593;BMP280;35499;51.482;4.264;2023-08-12T13:08:05;101470.59;;;33.52
49593;BMP280;35499;51.482;4.264;2023-08-12T13:10:30;101470.44;;;33.54
49593;BMP280;35499;51.482;4.264;2023-08-12T13:12:55;101475.09;;;33.52
49593;BMP280;35499;51.482;4.264;2023-08-12T13:15:22;101468.28;;;33.40
49593;BMP280;35499;51.482;4.264;2023-08-12T13:17:49;101485.59;;;33.27
49593;BMP280;35499;51.482;4.264;2023-08-12T13:20:14;101475.09;;;32.90
49593;BMP280;35499;51.482;4.264;2023-08-12T13:22:39;101474.47;;;33.31
49593;BMP280;35499;51.482;4.264;2023-08-12T13:25:05;101481.69;;;33.22
49593;BMP280;35499;51.482;4.264;2023-08-12T13:27:30;101480.78;;;33.30
49593;BMP280;35499;51.482;4.264;2023-08-12T13:29:55;101490.75;;;33.02
49593;BMP280;35499;51.482;4.264;2023-08-12T13:32:21;101493.72;;;32.81
49593;BMP280;35499;51.482;4.264;2023-08-12T13:34:46;101488.59;;;32.33
49593;BMP280;35499;51.482;4.264;2023-08-12T13:37:12;101495.56;;;31.79
49593;BMP280;35499;51.482;4.264;2023-08-12T13:39:38;101497.50;;;30.91
49593;BMP280;35499;51.482;4.264;2023-08-12T13:42:04;101495.13;;;30.68
49593;BMP280;35499;51.482;4.264;2023-08-12T13:44:29;101497.19;;;30.44
49593;BMP280;35499;51.482;4.264;2023-08-12T13:46:55;101502.84;;;30.20
49593;BMP280;35499;51.482;4.264;2023-08-12T13:49:20;101511.06;;;29.76
49593;BMP280;35499;51.482;4.264;2023-08-12T13:51:45;101517.34;;;29.64
49593;BMP280;35499;51.482;4.264;2023-08-12T13:54:10;101516.16;;;29.14
49593;BMP280;35499;51.482;4.264;2023-08-12T13:56:36;101507.53;;;29.12